createdAt,value
2017-11-21T00:01:41.770Z,25.47
2017-11-21T00:04:08.613Z,26.47
2017-11-21T00:06:35.465Z,26.70
2017-11-21T00:09:02.642Z,26.40
2017-11-21T00:11:29.815Z,25.95
2017-11-21T00:13:56.650Z,27.60
2017-11-21T00:16:23.513Z,27.25
2017-11-21T00:18:50.651Z,28.08
2017-11-21T00:21:17.479Z,26.90
2017-11-21T00:23:44.333Z,28.35
2017-11-21T00:26:11.172Z,27.67
2017-11-21T00:28:38.027Z,27.65
2017-11-21T00:31:04.921Z,27.90
2017-11-21T00:33:31.789Z,28.00
2017-11-21T00:35:58.974Z,26.70
2017-11-21T00:38:25.832Z,26.20
2017-11-21T00:40:53.246Z,26.05
2017-11-21T00:43:20.206Z,24.58
2017-11-21T00:45:47.052Z,24.63
2017-11-21T00:48:13.874Z,24.30
2017-11-21T00:50:40.718Z,24.23
2017-11-21T00:53:07.564Z,25.53
2017-11-21T00:55:34.384Z,25.97
2017-11-21T00:58:01.433Z,24.50
2017-11-21T01:00:28.303Z,25.07
2017-11-21T01:02:55.181Z,24.60
2017-11-21T01:05:22.046Z,25.63
2017-11-21T01:07:48.913Z,24.73
2017-11-21T01:10:15.802Z,25.10
2017-11-21T01:12:42.950Z,23.80
2017-11-21T01:15:09.824Z,24.65
2017-11-21T01:17:36.664Z,23.17
2017-11-21T01:20:03.531Z,24.37
2017-11-21T01:22:30.734Z,25.17
2017-11-21T01:24:57.882Z,25.20
2017-11-21T01:27:24.733Z,24.10
2017-11-21T01:29:52.525Z,25.20
2017-11-21T01:32:19.558Z,26.52
2017-11-21T01:34:46.442Z,25.52
2017-11-21T01:37:13.631Z,26.40
2017-11-21T01:39:40.463Z,26.10
2017-11-21T01:42:07.320Z,24.85
2017-11-21T01:44:34.425Z,25.55
2017-11-21T01:47:01.289Z,25.67
2017-11-21T01:49:28.141Z,25.90
2017-11-21T01:51:55.302Z,26.77
2017-11-21T01:54:22.452Z,25.75
2017-11-21T01:56:49.611Z,25.58
2017-11-21T01:59:16.492Z,26.10
2017-11-21T02:01:43.325Z,26.85
2017-11-21T02:04:10.186Z,27.30
2017-11-21T02:06:37.290Z,28.25
2017-11-21T02:09:04.165Z,28.00
2017-11-21T02:11:31.021Z,27.10
2017-11-21T02:13:57.852Z,27.52
2017-11-21T02:16:24.696Z,28.50
2017-11-21T02:18:51.518Z,27.85
2017-11-21T02:21:18.379Z,27.73
2017-11-21T02:23:45.597Z,26.05
2017-11-21T02:26:12.749Z,28.13
2017-11-21T02:28:39.901Z,27.05
2017-11-21T02:31:07.049Z,26.85
2017-11-21T02:33:33.937Z,27.70
2017-11-21T02:36:01.140Z,28.00
2017-11-21T02:38:27.986Z,26.97
2017-11-21T02:40:55.143Z,27.80
2017-11-21T02:43:22.284Z,27.30
2017-11-21T02:45:49.167Z,28.60
2017-11-21T02:48:16.036Z,26.33
2017-11-21T02:50:42.949Z,26.40
2017-11-21T02:53:10.169Z,26.35
2017-11-21T02:55:37.070Z,25.08
2017-11-21T02:58:04.264Z,25.40
2017-11-21T03:00:31.417Z,24.50
2017-11-21T03:02:58.564Z,24.95
2017-11-21T03:05:25.727Z,23.70
2017-11-21T03:07:52.590Z,25.75
2017-11-21T03:10:19.475Z,25.10
2017-11-21T03:12:46.375Z,24.20
2017-11-21T03:15:13.600Z,25.08
2017-11-21T03:17:40.453Z,24.75
2017-11-21T03:20:07.393Z,24.20
2017-11-21T03:22:40.585Z,25.25
2017-11-21T03:25:13.343Z,24.92
2017-11-21T03:27:46.057Z,24.87
2017-11-21T03:30:12.937Z,24.00
2017-11-21T03:32:40.145Z,24.50
2017-11-21T03:35:06.976Z,25.67
2017-11-21T03:37:34.138Z,23.90
2017-11-21T03:40:01.026Z,24.23
2017-11-21T03:42:28.129Z,25.30
2017-11-21T03:44:55.013Z,24.55
2017-11-21T03:47:21.846Z,24.15
2017-11-21T03:49:48.712Z,23.65
2017-11-21T03:52:15.809Z,22.83
2017-11-21T03:54:42.961Z,23.42
2017-11-21T03:57:09.821Z,23.40
2017-11-21T03:59:36.708Z,21.50
2017-11-21T04:02:03.540Z,23.50
2017-11-21T04:04:30.420Z,21.87
2017-11-21T04:06:57.293Z,22.05
2017-11-21T04:09:24.124Z,21.77
2017-11-21T04:11:50.985Z,22.75
2017-11-21T04:14:18.118Z,23.52
2017-11-21T04:16:44.958Z,21.93
2017-11-21T04:19:11.818Z,23.67
2017-11-21T04:21:38.954Z,24.37
2017-11-21T04:24:05.826Z,22.15
2017-11-21T04:26:32.940Z,23.30
2017-11-21T04:28:59.853Z,22.90
2017-11-21T04:31:27.041Z,23.12
2017-11-21T04:33:54.194Z,23.05
2017-11-21T04:36:21.340Z,22.70
2017-11-21T04:38:48.164Z,21.15
2017-11-21T04:41:15.014Z,22.17
2017-11-21T04:43:42.172Z,21.42
2017-11-21T04:46:09.042Z,21.10
2017-11-21T04:48:35.906Z,21.37
2017-11-21T04:51:02.794Z,22.15
2017-11-21T04:53:29.957Z,21.65
2017-11-21T04:55:56.801Z,21.45
2017-11-21T04:58:23.699Z,21.90
2017-11-21T05:00:50.556Z,20.42
2017-11-21T05:03:17.745Z,21.10
2017-11-21T05:05:44.646Z,20.60
2017-11-21T05:08:11.489Z,19.95
2017-11-21T05:10:38.577Z,21.30
2017-11-21T05:13:05.415Z,22.23
2017-11-21T05:15:32.576Z,21.73
2017-11-21T05:17:59.726Z,21.10
2017-11-21T05:20:26.874Z,21.73
2017-11-21T05:22:53.752Z,22.08
2017-11-21T05:25:20.974Z,21.80
2017-11-21T05:27:47.857Z,22.00
2017-11-21T05:30:14.712Z,22.70
2017-11-21T05:32:56.497Z,22.00
2017-11-21T05:35:23.350Z,22.02
2017-11-21T05:37:50.189Z,22.95
2017-11-21T05:40:17.057Z,22.48
2017-11-21T05:42:44.228Z,23.00
2017-11-21T05:45:11.081Z,22.15
2017-11-21T05:47:37.958Z,22.87
2017-11-21T05:50:04.800Z,21.60
2017-11-21T05:52:32.014Z,21.80
2017-11-21T05:54:59.170Z,22.30
2017-11-21T05:57:26.262Z,23.60
2017-11-21T05:59:53.357Z,23.52
2017-11-21T06:02:20.241Z,22.40
2017-11-21T06:04:47.073Z,24.08
2017-11-21T06:07:13.896Z,23.90
2017-11-21T06:09:41.040Z,23.30
2017-11-21T06:12:07.876Z,23.50
2017-11-21T06:14:35.041Z,23.42
2017-11-21T06:17:01.900Z,24.43
2017-11-21T06:19:28.742Z,23.90
2017-11-21T06:21:55.568Z,24.02
2017-11-21T06:24:22.448Z,24.37
2017-11-21T06:26:49.510Z,24.63
2017-11-21T06:29:16.350Z,24.27
2017-11-21T06:31:43.230Z,23.75
2017-11-21T06:34:10.065Z,23.17
2017-11-21T06:36:37.238Z,22.25
2017-11-21T06:39:04.114Z,23.55
2017-11-21T06:41:30.929Z,22.80
2017-11-21T06:43:57.781Z,23.37
2017-11-21T06:46:24.663Z,22.33
2017-11-21T06:48:51.513Z,22.35
2017-11-21T06:51:18.367Z,22.40
2017-11-21T06:53:45.544Z,23.02
2017-11-21T06:56:12.394Z,22.80
2017-11-21T06:58:39.265Z,22.90
2017-11-21T07:01:06.105Z,23.70
2017-11-21T07:03:32.967Z,21.90
2017-11-21T07:06:00.123Z,22.75
2017-11-21T07:08:27.000Z,22.27
2017-11-21T07:10:53.868Z,21.87
2017-11-21T07:13:20.692Z,21.87
2017-11-21T07:15:47.562Z,21.10
2017-11-21T07:18:14.692Z,20.53
2017-11-21T07:20:41.570Z,21.70
2017-11-21T07:23:08.794Z,21.30
2017-11-21T07:25:35.659Z,20.67
2017-11-21T07:28:02.713Z,21.50
2017-11-21T07:30:29.832Z,21.20
2017-11-21T07:32:56.986Z,21.30
2017-11-21T07:35:24.138Z,22.17
2017-11-21T07:37:51.265Z,22.15
2017-11-21T07:40:18.139Z,20.65
2017-11-21T07:42:45.278Z,22.20
2017-11-21T07:45:12.130Z,21.17
2017-11-21T07:47:38.998Z,21.40
2017-11-21T07:50:05.854Z,21.70
2017-11-21T07:52:32.957Z,20.17
2017-11-21T07:54:59.815Z,20.20
2017-11-21T07:57:26.958Z,20.23
2017-11-21T07:59:53.833Z,21.57
2017-11-21T08:02:20.652Z,20.70
2017-11-21T08:04:47.499Z,19.27
2017-11-21T08:07:14.404Z,19.37
2017-11-21T08:09:41.582Z,19.58
2017-11-21T08:12:08.428Z,19.67
2017-11-21T08:14:35.317Z,20.30
2017-11-21T08:17:02.785Z,19.47
2017-11-21T08:19:29.986Z,20.10
2017-11-21T08:21:56.834Z,19.93
2017-11-21T08:24:23.971Z,19.93
2017-11-21T08:26:50.845Z,20.05
2017-11-21T08:29:18.074Z,18.37
2017-11-21T08:31:45.178Z,18.70
2017-11-21T08:34:12.405Z,18.98
2017-11-21T08:36:39.728Z,18.83
2017-11-21T08:39:06.883Z,18.95
2017-11-21T08:41:34.126Z,18.08
2017-11-21T08:44:01.428Z,18.73
2017-11-21T08:46:28.301Z,17.80
2017-11-21T08:48:55.145Z,17.75
2017-11-21T08:51:21.980Z,18.37
2017-11-21T08:53:48.846Z,17.85
2017-11-21T08:56:16.421Z,18.58
2017-11-21T08:58:43.342Z,18.75
2017-11-21T09:01:10.176Z,18.62
2017-11-21T09:03:37.318Z,17.92
2017-11-21T09:06:04.203Z,17.15
2017-11-21T09:08:31.342Z,17.60
2017-11-21T09:10:58.189Z,16.55
2017-11-21T09:13:25.069Z,17.05
2017-11-21T09:15:51.925Z,17.75
2017-11-21T09:18:18.782Z,17.65
2017-11-21T09:20:45.970Z,17.00
2017-11-21T09:23:12.846Z,16.98
2017-11-21T09:25:39.702Z,16.70
2017-11-21T09:28:06.591Z,15.90
2017-11-21T09:30:33.441Z,16.75
2017-11-21T09:33:00.598Z,16.33
2017-11-21T09:35:27.485Z,17.33
2017-11-21T09:37:54.337Z,16.20
2017-11-21T09:40:21.535Z,16.40
2017-11-21T09:42:48.683Z,16.62
2017-11-21T09:45:15.529Z,18.05
2017-11-21T09:47:42.673Z,16.60
2017-11-21T09:50:09.820Z,17.30
2017-11-21T09:52:36.649Z,16.45
2017-11-21T09:55:03.488Z,16.83
2017-11-21T09:57:30.366Z,16.62
2017-11-21T09:59:57.226Z,15.60
2017-11-21T10:02:24.106Z,15.80
2017-11-21T10:04:51.190Z,15.70
2017-11-21T10:07:18.340Z,15.85
2017-11-21T10:09:45.445Z,15.70
2017-11-21T10:12:12.350Z,15.57
2017-11-21T10:14:39.175Z,15.50
2017-11-21T10:17:06.334Z,15.70
2017-11-21T10:19:33.484Z,15.52
2017-11-21T10:22:00.316Z,15.63
2017-11-21T10:24:27.473Z,15.47
2017-11-21T10:26:54.556Z,15.40
2017-11-21T10:29:21.401Z,15.45
2017-11-21T10:31:48.270Z,15.13
2017-11-21T10:34:15.119Z,15.73
2017-11-21T10:36:42.305Z,14.45
2017-11-21T10:39:09.166Z,14.90
2017-11-21T10:41:36.069Z,15.00
2017-11-21T10:44:02.893Z,15.20
2017-11-21T10:46:30.087Z,14.82
2017-11-21T10:48:56.993Z,14.38
2017-11-21T10:51:23.885Z,15.48
2017-11-21T10:53:50.756Z,16.02
2017-11-21T10:56:17.616Z,15.45
2017-11-21T10:58:44.478Z,16.00
2017-11-21T11:01:11.332Z,16.30
2017-11-21T11:03:38.209Z,16.60
2017-11-21T11:06:05.111Z,16.23
2017-11-21T11:08:31.973Z,15.40
2017-11-21T11:10:58.845Z,16.23
2017-11-21T11:13:25.741Z,16.52
2017-11-21T11:15:52.633Z,14.75
2017-11-21T11:18:19.506Z,15.80
2017-11-21T11:20:46.709Z,15.07
2017-11-21T11:23:13.857Z,15.40
2017-11-21T11:25:40.805Z,13.90
2017-11-21T11:28:07.683Z,13.70
2017-11-21T11:30:34.809Z,14.63
2017-11-21T11:33:01.705Z,15.63
2017-11-21T11:35:28.568Z,15.38
2017-11-21T11:37:55.439Z,15.20
2017-11-21T11:40:22.685Z,15.65
2017-11-21T11:42:49.833Z,14.90
2017-11-21T11:45:17.083Z,13.75
2017-11-21T11:47:44.337Z,14.30
2017-11-21T11:50:11.493Z,14.55
2017-11-21T11:52:38.391Z,14.38
2017-11-21T11:55:05.280Z,15.37
2017-11-21T11:57:32.192Z,14.50
2017-11-21T11:59:59.056Z,14.63
2017-11-21T12:02:25.979Z,14.83
2017-11-21T12:04:52.861Z,15.37
2017-11-21T12:07:19.762Z,15.70
2017-11-21T12:09:46.698Z,16.43
2017-11-21T12:12:13.549Z,15.87
2017-11-21T12:14:40.664Z,17.30
2017-11-21T12:17:07.581Z,17.02
2017-11-21T12:19:34.510Z,17.87
2017-11-21T12:22:01.420Z,16.62
2017-11-21T12:24:28.328Z,16.23
2017-11-21T12:26:55.228Z,16.00
2017-11-21T12:29:22.146Z,16.10
2017-11-21T12:31:49.050Z,15.77
2017-11-21T12:34:16.196Z,15.75
2017-11-21T12:36:43.149Z,16.55
2017-11-21T12:39:10.047Z,17.02
2017-11-21T12:41:36.953Z,17.02
2017-11-21T12:44:03.862Z,17.37
2017-11-21T12:46:31.029Z,16.77
2017-11-21T12:48:57.922Z,16.90
2017-11-21T12:51:24.826Z,16.10
2017-11-21T12:53:51.842Z,15.95
2017-11-21T12:56:19.012Z,16.62
2017-11-21T12:58:46.170Z,15.85
2017-11-21T13:01:13.420Z,14.93
2017-11-21T13:03:40.285Z,15.75
2017-11-21T13:06:07.407Z,15.98
2017-11-21T13:08:34.419Z,15.52
2017-11-21T13:11:01.370Z,14.93
2017-11-21T13:13:28.248Z,15.40
2017-11-21T13:15:55.177Z,15.52
2017-11-21T13:18:22.344Z,16.20
2017-11-21T13:20:49.197Z,16.12
2017-11-21T13:23:16.129Z,15.48
2017-11-21T13:25:43.870Z,15.20
2017-11-21T13:28:11.166Z,15.45
2017-11-21T13:30:38.106Z,15.00
2017-11-21T13:33:05.245Z,14.33
2017-11-21T13:35:32.122Z,13.32
2017-11-21T13:37:59.341Z,14.90
2017-11-21T13:40:26.255Z,14.20
2017-11-21T13:42:53.140Z,15.52
2017-11-21T13:45:20.386Z,14.15
2017-11-21T13:47:47.273Z,15.18
2017-11-21T13:50:14.477Z,14.77
2017-11-21T13:52:41.738Z,15.27
2017-11-21T13:55:08.885Z,15.70
2017-11-21T13:57:35.775Z,14.82
2017-11-21T14:00:02.676Z,14.80
2017-11-21T14:02:29.584Z,14.20
2017-11-21T14:04:56.764Z,15.90
2017-11-21T14:07:23.720Z,15.27
2017-11-21T14:09:54.155Z,15.30
2017-11-21T14:12:22.314Z,15.63
2017-11-21T14:14:49.189Z,15.38
2017-11-21T14:17:16.307Z,15.40
2017-11-21T14:19:43.460Z,15.30
2017-11-21T14:22:11.460Z,15.70
2017-11-21T14:24:38.476Z,16.73
2017-11-21T14:27:05.321Z,16.80
2017-11-21T14:29:32.240Z,16.33
2017-11-21T14:31:59.415Z,17.17
2017-11-21T14:34:26.288Z,17.60
2017-11-21T14:36:53.181Z,17.75
2017-11-21T14:39:20.077Z,17.08
2017-11-21T14:41:47.302Z,17.17
2017-11-21T14:44:14.251Z,18.23
2017-11-21T14:46:41.108Z,17.75
2017-11-21T14:49:08.013Z,17.92
2017-11-21T14:51:34.936Z,17.10
2017-11-21T14:54:05.292Z,17.70
2017-11-21T14:56:33.744Z,17.15
2017-11-21T14:59:00.613Z,17.70
2017-11-21T15:01:27.520Z,17.85
2017-11-21T15:03:54.430Z,19.05
2017-11-21T15:06:21.571Z,19.45
2017-11-21T15:08:48.717Z,20.55
2017-11-21T15:11:15.873Z,18.17
2017-11-21T15:13:43.123Z,17.98
2017-11-21T15:16:10.018Z,20.15
2017-11-21T15:18:36.921Z,18.75
2017-11-21T15:21:03.804Z,19.25
2017-11-21T15:23:30.678Z,18.73
2017-11-21T15:25:57.590Z,18.83
2017-11-21T15:28:24.533Z,17.80
2017-11-21T15:30:51.401Z,18.60
2017-11-21T15:33:18.263Z,18.65
2017-11-21T15:35:45.140Z,21.62
2017-11-21T15:38:11.991Z,20.30
2017-11-21T15:40:38.823Z,20.30
2017-11-21T15:43:05.739Z,19.35
2017-11-21T15:45:32.905Z,21.40
2017-11-21T15:47:59.793Z,19.40
2017-11-21T15:50:27.005Z,19.50
2017-11-21T15:52:53.903Z,19.10
2017-11-21T15:55:20.764Z,20.40
2017-11-21T15:57:47.679Z,20.08
2017-11-21T16:00:14.886Z,19.05
2017-11-21T16:02:42.029Z,19.87
2017-11-21T16:05:08.910Z,20.37
2017-11-21T16:07:35.779Z,21.37
2017-11-21T16:10:02.599Z,21.83
2017-11-21T16:12:29.441Z,20.00
2017-11-21T16:14:56.317Z,20.20
2017-11-21T16:17:23.497Z,20.10
2017-11-21T16:19:50.408Z,19.27
2017-11-21T16:22:18.392Z,18.98
2017-11-21T16:24:46.318Z,20.27
2017-11-21T16:27:13.821Z,19.20
2017-11-21T16:29:40.972Z,20.30
2017-11-21T16:32:08.957Z,19.52
2017-11-21T16:34:37.977Z,20.12
2017-11-21T16:37:06.439Z,20.95
2017-11-21T16:39:34.313Z,19.00
2017-11-21T16:42:01.773Z,20.00
2017-11-21T16:44:29.240Z,20.65
2017-11-21T16:46:56.782Z,22.02
2017-11-21T16:49:24.628Z,21.58
2017-11-21T16:51:52.649Z,21.83
2017-11-21T16:54:20.344Z,19.70
2017-11-21T16:56:47.774Z,19.35
2017-11-21T16:59:15.731Z,20.40
2017-11-21T17:01:43.064Z,18.77
2017-11-21T17:04:10.517Z,18.67
2017-11-21T17:06:38.375Z,19.67
2017-11-21T17:09:05.948Z,20.10
2017-11-21T17:11:34.413Z,19.47
2017-11-21T17:14:02.313Z,19.50
2017-11-21T17:16:29.745Z,18.80
2017-11-21T17:18:58.271Z,18.13
2017-11-21T17:21:25.841Z,18.10
2017-11-21T17:23:53.029Z,16.90
2017-11-21T17:26:19.901Z,16.40
2017-11-21T17:28:46.795Z,17.70
2017-11-21T17:31:13.988Z,17.37
2017-11-21T17:33:41.137Z,16.37
2017-11-21T17:36:08.821Z,17.08
2017-11-21T17:38:36.872Z,16.62
2017-11-21T17:41:04.081Z,15.93
2017-11-21T17:43:32.166Z,15.25
2017-11-21T17:46:00.499Z,15.15
2017-11-21T17:48:27.917Z,14.90
2017-11-21T17:50:56.790Z,14.70
2017-11-21T17:53:25.994Z,15.30
2017-11-21T17:55:55.232Z,13.60
2017-11-21T17:58:24.275Z,14.18
2017-11-21T18:00:52.296Z,13.50
2017-11-21T18:03:19.843Z,26.52
2017-11-21T18:05:47.326Z,14.10
2017-11-21T18:08:16.341Z,13.55
2017-11-21T18:10:43.804Z,12.63
2017-11-21T18:13:13.153Z,12.82
2017-11-21T18:15:40.814Z,13.40
2017-11-21T18:18:09.039Z,14.15
2017-11-21T18:20:38.175Z,13.37
2017-11-21T18:23:05.620Z,13.30
2017-11-21T18:25:34.346Z,13.07
2017-11-21T18:28:01.789Z,11.60
2017-11-21T18:30:29.877Z,12.32
2017-11-21T18:33:01.055Z,12.93
2017-11-21T18:35:28.460Z,11.55
2017-11-21T18:37:56.504Z,12.52
2017-11-21T18:40:24.587Z,11.87
2017-11-21T18:42:52.388Z,11.30
2017-11-21T18:45:19.939Z,11.80
2017-11-21T18:47:47.182Z,11.45
2017-11-21T18:50:32.049Z,11.57
2017-11-21T18:52:58.964Z,12.07
2017-11-21T18:55:26.039Z,11.75
2017-11-21T18:57:52.892Z,11.90
2017-11-21T19:00:19.741Z,12.30
2017-11-21T19:02:46.600Z,11.75
2017-11-21T19:05:13.417Z,11.98
2017-11-21T19:07:40.298Z,11.98
2017-11-21T19:10:07.419Z,12.37
2017-11-21T19:12:34.566Z,12.57
2017-11-21T19:15:01.408Z,13.18
2017-11-21T19:17:28.557Z,13.95
2017-11-21T19:19:55.406Z,12.90
2017-11-21T19:22:22.544Z,12.60
2017-11-21T19:24:49.413Z,12.60
2017-11-21T19:27:16.542Z,13.15
2017-11-21T19:29:43.693Z,12.60
2017-11-21T19:32:10.516Z,12.90
2017-11-21T19:34:38.263Z,12.40
2017-11-21T19:37:05.152Z,12.80
2017-11-21T19:39:32.006Z,12.88
2017-11-21T19:41:58.841Z,12.98
2017-11-21T19:44:25.701Z,13.48
2017-11-21T19:46:52.930Z,14.00
2017-11-21T19:49:20.080Z,13.10
2017-11-21T19:51:47.231Z,13.30
2017-11-21T19:54:14.046Z,18.73
2017-11-21T19:56:41.113Z,14.45
2017-11-21T19:59:07.980Z,14.18
2017-11-21T20:01:35.108Z,13.48
2017-11-21T20:04:02.006Z,13.38
2017-11-21T20:06:28.860Z,13.60
2017-11-21T20:08:55.696Z,13.60
2017-11-21T20:11:22.721Z,13.50
2017-11-21T20:13:49.585Z,13.82
2017-11-21T20:16:16.679Z,13.60
2017-11-21T20:18:43.833Z,13.50
2017-11-21T20:21:10.718Z,13.53
2017-11-21T20:23:37.533Z,13.67
2017-11-21T20:26:04.392Z,13.95
2017-11-21T20:28:31.259Z,13.93
2017-11-21T20:30:58.190Z,13.60
2017-11-21T20:33:25.053Z,13.60
2017-11-21T20:35:51.938Z,14.65
2017-11-21T20:38:18.791Z,14.50
2017-11-21T20:40:45.648Z,14.82
2017-11-21T20:43:12.741Z,14.48
2017-11-21T20:45:39.654Z,14.80
2017-11-21T20:48:06.496Z,14.25
2017-11-21T20:50:33.340Z,14.60
2017-11-21T20:53:00.172Z,14.60
2017-11-21T20:55:27.307Z,14.20
2017-11-21T20:57:54.160Z,13.43
2017-11-21T21:00:21.015Z,13.30
2017-11-21T21:02:48.136Z,14.50
2017-11-21T21:05:15.279Z,13.83
2017-11-21T21:07:42.161Z,14.00
2017-11-21T21:10:09.019Z,13.15
2017-11-21T21:12:35.917Z,12.97
2017-11-21T21:15:02.753Z,11.90
2017-11-21T21:17:29.808Z,12.33
2017-11-21T21:19:56.676Z,11.52
2017-11-21T21:22:23.494Z,12.93
2017-11-21T21:24:50.359Z,11.80
2017-11-21T21:27:23.630Z,10.90
2017-11-21T21:29:50.722Z,10.65
2017-11-21T21:32:17.552Z,10.38
2017-11-21T21:34:44.389Z,11.68
2017-11-21T21:37:11.522Z,11.10
2017-11-21T21:39:38.675Z,11.43
2017-11-21T21:42:05.819Z,10.77
2017-11-21T21:44:32.702Z,10.67
2017-11-21T21:46:59.547Z,10.60
2017-11-21T21:49:26.425Z,11.10
2017-11-21T21:51:53.602Z,10.80
2017-11-21T21:54:20.451Z,10.50
2017-11-21T21:56:47.333Z,11.20
2017-11-21T21:59:14.432Z,10.87
2017-11-21T22:01:41.294Z,10.00
2017-11-21T22:04:08.326Z,9.80
2017-11-21T22:06:36.099Z,9.75
2017-11-21T22:09:04.087Z,10.60
2017-11-21T22:11:32.017Z,10.73
2017-11-21T22:13:59.870Z,10.35
2017-11-21T22:16:27.978Z,9.77
2017-11-21T22:18:55.556Z,9.77
2017-11-21T22:21:22.976Z,10.20
2017-11-21T22:23:52.547Z,9.55
2017-11-21T22:26:20.748Z,9.40
2017-11-21T22:28:50.220Z,10.00
2017-11-21T22:31:17.893Z,8.98
2017-11-21T22:33:47.017Z,9.48
2017-11-21T22:36:16.261Z,9.70
2017-11-21T22:38:43.542Z,9.20
2017-11-21T22:41:11.174Z,8.82
2017-11-21T22:43:38.568Z,8.70
2017-11-21T22:46:05.876Z,8.85
2017-11-21T22:48:33.835Z,8.90
2017-11-21T22:51:01.272Z,8.80
2017-11-21T22:53:28.464Z,8.23
2017-11-21T22:55:55.739Z,8.10
2017-11-21T22:58:23.371Z,8.57
2017-11-21T23:00:51.957Z,8.02
2017-11-21T23:03:19.710Z,8.50
2017-11-21T23:05:47.305Z,8.60
2017-11-21T23:09:25.971Z,8.10
2017-11-21T23:11:54.053Z,7.90
2017-11-21T23:14:27.802Z,7.70
2017-11-21T23:16:55.310Z,8.30
2017-11-21T23:19:22.476Z,8.23
2017-11-21T23:21:49.342Z,8.38
2017-11-21T23:24:16.238Z,7.95
2017-11-21T23:26:43.070Z,8.10
2017-11-21T23:29:09.953Z,7.62
2017-11-21T23:31:37.106Z,8.07
2017-11-21T23:34:04.013Z,7.73
2017-11-21T23:36:30.872Z,7.37
2017-11-21T23:38:57.767Z,7.57
2017-11-21T23:41:24.781Z,6.97
2017-11-21T23:43:51.712Z,6.40
2017-11-21T23:46:18.544Z,6.50
2017-11-21T23:48:45.389Z,6.37
2017-11-21T23:51:12.242Z,5.50
2017-11-21T23:53:39.084Z,5.10
2017-11-21T23:56:05.955Z,4.28
2017-11-21T23:58:32.780Z,4.60
